Time;durP1;ratioP1;P1;durP2;ratioP2;P2;SDS_P1;SDS_P2;PMS_P1;PMS_P2;Temp;Humidity;BMP_temperature;BMP_pressure;BME280_temperature;BME280_humidity;BME280_pressure;Samples;Min_cycle;Max_cycle;Signal;HPM_P1;HPM_P2
2023/12/19 00:01:58;;;;;;;8.13;3.33;;;;;;;;;;5061670;27;89682;-71
2023/12/19 00:04:30;;;;;;;5.67;2.83;;;;;;;;;;5061612;27;88960;-71
2023/12/19 00:07:00;;;;;;;6.50;3.03;;;;;;;;;;5061305;27;88014;-71
2023/12/19 00:09:28;;;;;;;7.17;2.83;;;;;;;;;;5061243;27;87861;-71
2023/12/19 00:12:00;;;;;;;3.77;2.87;;;;;;;;;;5061202;27;89566;-71
2023/12/19 00:14:35;;;;;;;5.80;2.80;;;;;;;;;;5058357;27;90166;-71
2023/12/19 00:17:04;;;;;;;3.40;2.40;;;;;;;;;;5059872;27;89836;-71
2023/12/19 00:19:32;;;;;;;3.73;3.20;;;;;;;;;;5059793;27;87708;-71
2023/12/19 00:22:01;;;;;;;5.30;2.80;;;;;;;;;;5059309;27;89679;-71
2023/12/19 00:24:29;;;;;;;4.27;3.07;;;;;;;;;;5059577;27;88503;-71
2023/12/19 00:26:59;;;;;;;3.53;2.80;;;;;;;;;;5059804;27;89301;-71
2023/12/19 00:29:28;;;;;;;8.23;3.10;;;;;;;;;;5059661;27;89251;-71
2023/12/19 00:31:57;;;;;;;3.03;2.23;;;;;;;;;;5058836;27;89824;-71
2023/12/19 00:38:40;;;;;;;4.10;2.40;;;;;;;;;;4975310;28;87605;-71
2023/12/19 00:41:10;;;;;;;3.27;2.90;;;;;;;;;;4965722;28;88662;-71
2023/12/19 00:43:38;;;;;;;4.37;2.10;;;;;;;;;;4976608;28;89645;-71
2023/12/19 00:46:07;;;;;;;7.83;3.30;;;;;;;;;;5026901;27;89168;-71
2023/12/19 00:48:38;;;;;;;3.87;2.63;;;;;;;;;;5059532;27;88998;-71
2023/12/19 00:51:10;;;;;;;4.57;2.20;;;;;;;;;;5058534;27;87616;-71
2023/12/19 00:53:38;;;;;;;4.07;2.63;;;;;;;;;;5059941;27;89619;-71
2023/12/19 00:56:08;;;;;;;3.27;2.77;;;;;;;;;;5058467;27;88889;-71
2023/12/19 00:59:11;;;;;;;4.33;2.30;;;;;;;;;;5058498;27;88887;-71
2023/12/19 01:02:09;;;;;;;5.10;2.27;;;;;;;;;;4920763;28;87687;-71
2023/12/19 01:04:38;;;;;;;7.40;3.03;;;;;;;;;;4995271;28;89628;-71
2023/12/19 01:07:10;;;;;;;6.67;2.93;;;;;;;;;;4996993;28;89810;-71
2023/12/19 01:09:38;;;;;;;3.17;2.30;;;;;;;;;;4997154;28;89798;-71
2023/12/19 01:12:09;;;;;;;5.97;2.60;;;;;;;;;;4998051;28;87630;-71
2023/12/19 01:14:38;;;;;;;4.07;2.20;;;;;;;;;;4997603;28;89577;-71
2023/12/19 01:17:06;;;;;;;5.63;2.47;;;;;;;;;;4995768;28;89089;-71
2023/12/19 01:19:35;;;;;;;3.37;2.77;;;;;;;;;;4996179;28;88955;-71
2023/12/19 01:22:06;;;;;;;3.30;2.27;;;;;;;;;;4996835;28;87636;-71
2023/12/19 01:24:35;;;;;;;4.23;2.17;;;;;;;;;;4996238;28;89896;-71
2023/12/19 01:27:18;;;;;;;4.70;2.57;;;;;;;;;;4997797;28;88044;-71
2023/12/19 01:30:08;;;;;;;3.17;2.47;;;;;;;;;;4986905;28;88880;-71
2023/12/19 01:32:42;;;;;;;3.87;2.13;;;;;;;;;;4945626;28;88012;-71
2023/12/19 01:35:11;;;;;;;2.70;2.10;;;;;;;;;;4996669;28;89697;-71
2023/12/19 01:40:48;;;;;;;4.03;2.37;;;;;;;;;;5047479;27;88991;-71
2023/12/19 01:43:16;;;;;;;5.50;2.70;;;;;;;;;;5057834;27;89183;-71
2023/12/19 01:45:52;;;;;;;7.10;2.90;;;;;;;;;;5061099;27;89575;-71
2023/12/19 01:48:21;;;;;;;2.87;2.30;;;;;;;;;;5068641;27;89182;-71
2023/12/19 01:50:58;;;;;;;2.00;1.87;;;;;;;;;;5061144;27;88886;-71
2023/12/19 01:53:48;;;;;;;2.77;2.13;;;;;;;;;;5054184;27;87462;-71
2023/12/19 01:56:19;;;;;;;2.00;1.57;;;;;;;;;;5063307;27;91898;-71
2023/12/19 01:58:49;;;;;;;2.97;2.50;;;;;;;;;;5061385;27;90054;-71
2023/12/19 02:01:18;;;;;;;5.83;2.83;;;;;;;;;;5062476;27;89826;-71
2023/12/19 02:03:48;;;;;;;4.87;2.33;;;;;;;;;;5063515;27;87571;-71
2023/12/19 02:09:55;;;;;;;3.43;2.27;;;;;;;;;;4976759;28;88970;-71
2023/12/19 02:12:26;;;;;;;3.40;1.80;;;;;;;;;;4979710;28;88998;-71
2023/12/19 02:14:54;;;;;;;3.83;1.73;;;;;;;;;;4964433;27;87676;-71
2023/12/19 02:17:25;;;;;;;2.53;1.40;;;;;;;;;;5062208;27;89786;-71
2023/12/19 02:19:53;;;;;;;2.27;1.67;;;;;;;;;;5062805;27;87560;-71
2023/12/19 02:22:22;;;;;;;2.80;2.27;;;;;;;;;;5063485;27;88778;-71
2023/12/19 02:24:51;;;;;;;2.23;2.07;;;;;;;;;;5061325;27;88345;-71
2023/12/19 02:27:21;;;;;;;3.13;2.07;;;;;;;;;;5062275;27;89674;-71
2023/12/19 02:29:49;;;;;;;2.40;2.20;;;;;;;;;;5060925;27;89196;-71
2023/12/19 02:32:17;;;;;;;3.87;1.90;;;;;;;;;;5061663;27;89269;-71
2023/12/19 02:34:49;;;;;;;2.87;1.70;;;;;;;;;;5061720;27;87734;-71
2023/12/19 02:37:23;;;;;;;4.20;2.70;;;;;;;;;;5061833;27;89621;-72
2023/12/19 02:39:57;;;;;;;3.73;1.80;;;;;;;;;;5053335;27;87490;-72
2023/12/19 02:42:26;;;;;;;3.83;2.37;;;;;;;;;;5061738;27;88597;-72
2023/12/19 02:48:28;;;;;;;2.23;1.60;;;;;;;;;;5056654;27;88658;-70
2023/12/19 02:50:57;;;;;;;3.37;2.03;;;;;;;;;;5056262;27;90230;-71
2023/12/19 02:53:27;;;;;;;2.60;2.10;;;;;;;;;;5054781;27;91847;-71
2023/12/19 02:55:57;;;;;;;2.23;1.53;;;;;;;;;;5047789;27;87659;-71
2023/12/19 02:58:37;;;;;;;3.20;2.00;;;;;;;;;;5059102;27;89711;-72
2023/12/19 03:01:08;;;;;;;2.03;1.80;;;;;;;;;;5054076;27;89178;-71
2023/12/19 03:03:37;;;;;;;2.30;1.73;;;;;;;;;;5057244;27;89004;-71
2023/12/19 03:06:07;;;;;;;2.20;1.83;;;;;;;;;;5056826;27;87661;-70
2023/12/19 03:08:35;;;;;;;2.07;1.50;;;;;;;;;;5058811;27;89585;-71
2023/12/19 03:11:07;;;;;;;1.77;1.50;;;;;;;;;;5058008;27;90221;-72
2023/12/19 03:14:02;;;;;;;3.27;1.30;;;;;;;;;;5057488;27;88811;-71
2023/12/19 03:16:39;;;;;;;2.20;1.63;;;;;;;;;;5007251;27;88105;-70
2023/12/19 03:19:42;;;;;;;2.20;1.80;;;;;;;;;;5053968;27;89691;-70
2023/12/19 03:22:13;;;;;;;2.00;1.70;;;;;;;;;;5016644;27;89092;-71
2023/12/19 03:24:45;;;;;;;1.63;1.53;;;;;;;;;;5058238;27;88705;-71
2023/12/19 03:27:16;;;;;;;2.07;1.87;;;;;;;;;;5058493;27;88094;-72
2023/12/19 03:29:45;;;;;;;1.37;1.27;;;;;;;;;;5057380;27;89733;-70
2023/12/19 03:35:40;;;;;;;2.17;1.10;;;;;;;;;;4941164;28;91685;-69
2023/12/19 03:38:09;;;;;;;1.93;1.40;;;;;;;;;;4957249;28;87657;-70
2023/12/19 03:40:39;;;;;;;2.50;1.40;;;;;;;;;;4956002;28;90002;-71
2023/12/19 03:43:09;;;;;;;2.30;1.60;;;;;;;;;;4959384;28;90326;-69
2023/12/19 03:45:37;;;;;;;3.40;1.63;;;;;;;;;;4954215;28;89983;-70
2023/12/19 03:48:06;;;;;;;2.20;1.47;;;;;;;;;;5042565;27;88682;-70
2023/12/19 03:50:35;;;;;;;2.40;1.43;;;;;;;;;;5058597;27;88459;-69
2023/12/19 03:53:09;;;;;;;1.90;1.30;;;;;;;;;;5058320;27;89538;-71
2023/12/19 03:55:44;;;;;;;2.13;1.50;;;;;;;;;;5058158;27;89021;-71
2023/12/19 03:58:14;;;;;;;3.30;1.77;;;;;;;;;;5057568;27;89238;-71
2023/12/19 04:04:39;;;;;;;2.07;1.60;;;;;;;;;;5058286;27;87875;-70
2023/12/19 04:07:08;;;;;;;3.63;1.67;;;;;;;;;;4993187;28;87618;-70
2023/12/19 04:09:45;;;;;;;2.63;1.43;;;;;;;;;;5037523;27;88009;-71
2023/12/19 04:12:17;;;;;;;1.33;1.23;;;;;;;;;;5057164;27;89715;-70
2023/12/19 04:14:47;;;;;;;1.30;1.13;;;;;;;;;;5060576;27;88966;-70
2023/12/19 04:20:10;;;;;;;1.87;1.10;;;;;;;;;;5017332;27;87489;-71
2023/12/19 04:26:09;;;;;;;2.30;1.13;;;;;;;;;;4991238;28;87763;-70
2023/12/19 04:28:38;;;;;;;1.70;1.20;;;;;;;;;;4976916;28;88994;-71
2023/12/19 04:31:15;;;;;;;2.00;1.30;;;;;;;;;;4981516;28;87662;-71
2023/12/19 04:36:59;;;;;;;1.27;1.17;;;;;;;;;;4974707;28;90124;-70
2023/12/19 04:40:05;;;;;;;2.60;1.60;;;;;;;;;;4978968;28;88034;-70
2023/12/19 04:42:37;;;;;;;3.20;1.40;;;;;;;;;;4978263;28;87576;-70
2023/12/19 04:48:12;;;;;;;1.20;1.07;;;;;;;;;;4984078;28;89140;-70
2023/12/19 04:50:42;;;;;;;1.87;1.20;;;;;;;;;;4977889;28;88788;-70
2023/12/19 04:53:18;;;;;;;1.43;1.33;;;;;;;;;;4980343;28;87865;-70
2023/12/19 04:55:55;;;;;;;1.80;1.53;;;;;;;;;;4991466;28;88512;-69
2023/12/19 04:58:28;;;;;;;2.23;1.67;;;;;;;;;;4989607;28;89197;-70
2023/12/19 05:00:57;;;;;;;1.90;1.43;;;;;;;;;;4980271;28;88914;-70
2023/12/19 05:03:33;;;;;;;3.87;1.70;;;;;;;;;;5058731;27;89228;-70
2023/12/19 05:09:44;;;;;;;2.10;1.90;;;;;;;;;;5025616;27;88407;-70
2023/12/19 05:12:30;;;;;;;2.20;1.60;;;;;;;;;;5059641;27;88798;-70
2023/12/19 05:15:07;;;;;;;2.83;1.40;;;;;;;;;;5055497;27;88386;-70
2023/12/19 05:17:47;;;;;;;5.03;1.23;;;;;;;;;;5052912;27;91560;-70
2023/12/19 05:20:21;;;;;;;4.57;1.80;;;;;;;;;;5058961;27;90185;-70
2023/12/19 05:23:03;;;;;;;1.60;1.27;;;;;;;;;;5057464;27;88791;-70
2023/12/19 05:25:31;;;;;;;2.60;1.53;;;;;;;;;;5059494;27;87799;-70
2023/12/19 05:28:00;;;;;;;3.70;1.83;;;;;;;;;;5059695;27;89709;-70
2023/12/19 05:30:29;;;;;;;2.23;2.00;;;;;;;;;;5057742;27;90105;-70
2023/12/19 05:33:48;;;;;;;1.87;1.73;;;;;;;;;;5055998;27;89847;-70
2023/12/19 05:36:18;;;;;;;1.70;1.60;;;;;;;;;;5004212;27;87618;-70
2023/12/19 05:38:47;;;;;;;1.50;1.40;;;;;;;;;;5059749;27;89380;-70
2023/12/19 05:41:16;;;;;;;2.37;1.33;;;;;;;;;;5057977;27;89150;-70
2023/12/19 05:43:45;;;;;;;1.60;1.50;;;;;;;;;;5058054;27;88413;-70
2023/12/19 05:46:30;;;;;;;1.40;1.30;;;;;;;;;;5057623;27;87687;-70
2023/12/19 05:49:09;;;;;;;2.67;2.03;;;;;;;;;;5002045;27;87581;-70
2023/12/19 05:51:48;;;;;;;1.87;1.37;;;;;;;;;;5058523;27;89114;-70
2023/12/19 05:54:18;;;;;;;5.17;1.70;;;;;;;;;;5059345;27;87614;-71
2023/12/19 05:56:47;;;;;;;2.13;1.90;;;;;;;;;;5059256;27;87966;-71
2023/12/19 06:02:50;;;;;;;4.10;2.33;;;;;;;;;;5004461;27;88093;-71
2023/12/19 06:05:24;;;;;;;1.57;1.47;;;;;;;;;;5024366;27;88826;-71
2023/12/19 06:07:54;;;;;;;3.13;2.20;;;;;;;;;;5059853;27;87639;-70
2023/12/19 06:10:25;;;;;;;1.97;1.57;;;;;;;;;;5058733;27;92303;-71
2023/12/19 06:13:08;;;;;;;1.63;1.53;;;;;;;;;;5020137;27;88186;-71
2023/12/19 06:15:43;;;;;;;4.50;2.10;;;;;;;;;;5058862;27;89020;-71
2023/12/19 06:18:32;;;;;;;3.03;2.00;;;;;;;;;;5058379;27;87374;-71
2023/12/19 06:21:10;;;;;;;2.13;1.57;;;;;;;;;;5046674;27;89826;-70
2023/12/19 06:23:40;;;;;;;3.03;2.20;;;;;;;;;;5057359;27;90101;-70
2023/12/19 06:26:08;;;;;;;2.67;2.20;;;;;;;;;;5054854;27;89525;-70
2023/12/19 06:31:48;;;;;;;2.37;1.33;;;;;;;;;;5043972;27;89776;-70
2023/12/19 06:34:17;;;;;;;2.30;2.00;;;;;;;;;;5060787;27;89385;-71
2023/12/19 06:36:46;;;;;;;3.40;2.37;;;;;;;;;;5060239;27;88993;-70
2023/12/19 06:39:17;;;;;;;3.57;2.43;;;;;;;;;;5061859;27;87934;-68
2023/12/19 06:48:13;;;;;;;2.70;2.17;;;;;;;;;;5052698;27;87591;-68
2023/12/19 06:50:44;;;;;;;2.07;1.73;;;;;;;;;;5063234;27;87811;-70
2023/12/19 06:53:13;;;;;;;4.00;2.13;;;;;;;;;;5062696;27;89595;-71
2023/12/19 06:55:46;;;;;;;3.93;2.13;;;;;;;;;;5061899;27;89171;-68
2023/12/19 06:58:19;;;;;;;3.13;1.83;;;;;;;;;;5058101;27;88625;-71
2023/12/19 07:01:03;;;;;;;2.37;2.03;;;;;;;;;;5061743;27;88869;-71
2023/12/19 07:03:33;;;;;;;2.30;2.10;;;;;;;;;;5062791;27;89957;-74
2023/12/19 07:06:02;;;;;;;2.33;1.57;;;;;;;;;;5061697;27;88117;-70
2023/12/19 07:08:43;;;;;;;3.70;1.70;;;;;;;;;;5062535;27;88690;-70
2023/12/19 07:11:30;;;;;;;3.60;2.07;;;;;;;;;;5062137;27;88089;-69
2023/12/19 07:17:27;;;;;;;3.57;2.10;;;;;;;;;;5012527;27;90115;-70
2023/12/19 07:19:57;;;;;;;1.93;1.37;;;;;;;;;;5059143;27;89841;-67
2023/12/19 07:22:27;;;;;;;2.67;2.10;;;;;;;;;;5061569;27;87336;-68
2023/12/19 07:25:00;;;;;;;3.07;2.40;;;;;;;;;;5009743;27;89849;-67
2023/12/19 07:27:30;;;;;;;2.67;1.40;;;;;;;;;;5061638;27;89491;-66
2023/12/19 07:30:05;;;;;;;1.80;1.63;;;;;;;;;;5059888;27;91706;-66
2023/12/19 07:33:04;;;;;;;3.10;1.77;;;;;;;;;;5053211;27;87496;-66
2023/12/19 07:36:11;;;;;;;2.70;1.57;;;;;;;;;;5049748;27;89719;-68
2023/12/19 07:38:39;;;;;;;1.63;1.53;;;;;;;;;;5055590;27;89254;-67
2023/12/19 07:44:09;;;;;;;2.13;1.50;;;;;;;;;;5040946;28;88056;-68
2023/12/19 07:46:41;;;;;;;3.47;1.60;;;;;;;;;;5059388;27;89811;-69
2023/12/19 07:49:10;;;;;;;1.23;1.13;;;;;;;;;;5058671;27;89145;-68
2023/12/19 07:51:43;;;;;;;2.07;1.60;;;;;;;;;;5060758;27;89067;-67
2023/12/19 07:54:43;;;;;;;1.97;1.57;;;;;;;;;;5000314;28;87766;-67
2023/12/19 07:57:15;;;;;;;1.53;1.43;;;;;;;;;;5058707;27;89657;-66
2023/12/19 08:00:21;;;;;;;2.10;1.70;;;;;;;;;;5035005;27;88184;-66
2023/12/19 08:02:54;;;;;;;1.50;1.20;;;;;;;;;;5054709;27;88843;-69
2023/12/19 08:05:32;;;;;;;4.00;1.80;;;;;;;;;;5009286;28;87610;-68
2023/12/19 08:08:03;;;;;;;2.70;1.70;;;;;;;;;;5041659;27;90193;-69
2023/12/19 08:10:32;;;;;;;2.00;1.40;;;;;;;;;;5068853;27;90038;-68
2023/12/19 08:13:01;;;;;;;1.40;1.10;;;;;;;;;;5063064;27;89780;-70
2023/12/19 08:15:30;;;;;;;4.30;1.57;;;;;;;;;;5060614;27;87591;-70
2023/12/19 08:17:59;;;;;;;3.50;1.77;;;;;;;;;;5067549;27;89535;-70
2023/12/19 08:20:28;;;;;;;1.70;1.60;;;;;;;;;;5069597;27;89058;-70
2023/12/19 08:23:07;;;;;;;2.93;1.87;;;;;;;;;;5064558;27;87663;-69
2023/12/19 08:25:38;;;;;;;2.40;1.57;;;;;;;;;;5074702;27;87548;-69
2023/12/19 08:28:14;;;;;;;2.53;1.60;;;;;;;;;;5069895;27;89761;-69
2023/12/19 08:30:43;;;;;;;1.37;1.27;;;;;;;;;;5065111;27;89019;-70
2023/12/19 08:33:13;;;;;;;2.27;1.50;;;;;;;;;;5058989;27;88777;-70
2023/12/19 08:35:41;;;;;;;1.40;1.30;;;;;;;;;;5073559;27;88378;-70
2023/12/19 08:38:10;;;;;;;2.07;1.37;;;;;;;;;;5068084;27;89551;-70
2023/12/19 08:40:38;;;;;;;2.53;1.80;;;;;;;;;;5063624;27;89043;-70
2023/12/19 08:43:06;;;;;;;1.67;1.10;;;;;;;;;;5062022;27;88831;-70
2023/12/19 08:45:35;;;;;;;1.70;1.40;;;;;;;;;;5066346;27;87647;-70
2023/12/19 08:48:04;;;;;;;1.93;1.57;;;;;;;;;;5060882;27;89798;-70
2023/12/19 08:50:36;;;;;;;0.80;0.80;;;;;;;;;;5060778;27;88666;-69
2023/12/19 08:53:05;;;;;;;3.83;1.70;;;;;;;;;;5070259;27;88877;-70
2023/12/19 08:55:36;;;;;;;2.60;1.50;;;;;;;;;;5074208;27;87559;-70
2023/12/19 08:58:05;;;;;;;2.03;1.60;;;;;;;;;;5071670;27;88512;-70
2023/12/19 09:00:33;;;;;;;1.90;1.27;;;;;;;;;;5064679;27;90020;-70
2023/12/19 09:03:05;;;;;;;1.23;1.10;;;;;;;;;;5057342;27;89768;-70
2023/12/19 09:05:33;;;;;;;1.90;1.50;;;;;;;;;;5058698;27;87704;-70
2023/12/19 09:08:04;;;;;;;2.47;1.53;;;;;;;;;;5061199;27;89768;-70
2023/12/19 09:10:32;;;;;;;1.93;1.60;;;;;;;;;;5060817;27;89186;-70
2023/12/19 09:13:04;;;;;;;1.93;1.30;;;;;;;;;;5059573;27;89081;-70
2023/12/19 09:15:32;;;;;;;3.37;1.43;;;;;;;;;;5060443;27;88134;-70
2023/12/19 09:18:00;;;;;;;3.47;1.50;;;;;;;;;;5061093;27;89708;-70
2023/12/19 09:20:29;;;;;;;2.07;1.40;;;;;;;;;;5060240;27;89626;-70
2023/12/19 09:22:58;;;;;;;2.27;1.50;;;;;;;;;;5059225;27;88986;-71
2023/12/19 09:25:27;;;;;;;2.63;1.50;;;;;;;;;;5059677;27;88051;-71
2023/12/19 09:27:58;;;;;;;2.00;1.27;;;;;;;;;;5060355;27;89618;-71
2023/12/19 09:30:26;;;;;;;2.37;1.53;;;;;;;;;;5060132;27;89187;-71
2023/12/19 09:32:54;;;;;;;2.70;1.47;;;;;;;;;;5060972;27;87811;-71
2023/12/19 09:35:23;;;;;;;3.77;2.00;;;;;;;;;;5060413;27;87620;-71
2023/12/19 09:37:51;;;;;;;3.17;1.77;;;;;;;;;;5059719;27;89588;-71
2023/12/19 09:40:26;;;;;;;3.40;1.60;;;;;;;;;;5060432;27;88182;-71
2023/12/19 09:42:57;;;;;;;3.10;1.93;;;;;;;;;;5060411;27;88806;-70
2023/12/19 09:45:26;;;;;;;3.43;1.47;;;;;;;;;;5060219;27;87391;-68
2023/12/19 09:47:58;;;;;;;2.20;1.83;;;;;;;;;;5059719;27;89768;-69
2023/12/19 09:50:27;;;;;;;8.43;1.77;;;;;;;;;;5059670;27;90038;-68
2023/12/19 09:52:55;;;;;;;12.10;1.90;;;;;;;;;;5060690;27;89745;-69
2023/12/19 09:55:24;;;;;;;7.83;2.27;;;;;;;;;;5060994;27;87597;-70
2023/12/19 09:57:52;;;;;;;2.53;1.63;;;;;;;;;;5060648;27;89744;-71
2023/12/19 10:00:25;;;;;;;6.17;1.87;;;;;;;;;;5059922;27;88964;-70
2023/12/19 10:02:54;;;;;;;6.53;2.07;;;;;;;;;;5059820;27;88792;-71
2023/12/19 10:05:26;;;;;;;3.23;2.03;;;;;;;;;;5060399;27;87607;-70
2023/12/19 10:07:55;;;;;;;4.13;2.10;;;;;;;;;;5063861;27;89722;-72
2023/12/19 10:10:27;;;;;;;6.03;2.73;;;;;;;;;;5063516;27;88968;-73
2023/12/19 10:12:57;;;;;;;4.37;2.13;;;;;;;;;;5063107;27;89057;-73
2023/12/19 10:15:30;;;;;;;3.87;2.47;;;;;;;;;;5063733;27;88071;-72
2023/12/19 10:18:10;;;;;;;3.13;2.37;;;;;;;;;;5063292;27;88581;-70
2023/12/19 10:20:41;;;;;;;4.13;2.37;;;;;;;;;;5063184;27;89034;-70
2023/12/19 10:23:14;;;;;;;8.87;6.10;;;;;;;;;;5063138;27;88821;-70
2023/12/19 10:25:42;;;;;;;6.80;4.37;;;;;;;;;;5063076;27;87572;-70
2023/12/19 10:28:14;;;;;;;7.70;4.60;;;;;;;;;;5063316;27;89594;-70
2023/12/19 10:30:45;;;;;;;7.77;4.50;;;;;;;;;;5062937;27;89165;-70
2023/12/19 10:33:14;;;;;;;9.60;3.73;;;;;;;;;;5063699;27;89926;-70
2023/12/19 10:35:44;;;;;;;6.27;4.07;;;;;;;;;;5063943;27;87711;-70
2023/12/19 10:38:17;;;;;;;5.53;3.90;;;;;;;;;;5063191;27;89675;-70
2023/12/19 10:40:46;;;;;;;4.77;3.47;;;;;;;;;;5062752;27;90066;-70
2023/12/19 10:43:15;;;;;;;4.77;3.60;;;;;;;;;;5063113;27;89980;-69
2023/12/19 10:45:44;;;;;;;5.13;3.90;;;;;;;;;;5062886;27;87875;-70
2023/12/19 10:48:13;;;;;;;4.60;3.50;;;;;;;;;;5063560;27;89411;-70
2023/12/19 10:50:42;;;;;;;6.27;3.97;;;;;;;;;;5062853;27;89223;-70
2023/12/19 10:53:12;;;;;;;6.90;3.60;;;;;;;;;;5062903;27;88591;-70
2023/12/19 10:55:43;;;;;;;5.23;3.90;;;;;;;;;;5063243;27;87354;-69
2023/12/19 10:58:11;;;;;;;5.97;4.27;;;;;;;;;;5062530;27;89930;-69
2023/12/19 11:00:41;;;;;;;8.20;4.00;;;;;;;;;;5062329;27;89290;-70
2023/12/19 11:03:13;;;;;;;6.57;4.50;;;;;;;;;;5062627;27;88934;-69
2023/12/19 11:05:42;;;;;;;5.23;3.90;;;;;;;;;;5062684;27;87969;-69
2023/12/19 11:08:14;;;;;;;7.13;4.77;;;;;;;;;;5062548;27;88649;-70
2023/12/19 11:10:43;;;;;;;4.57;3.87;;;;;;;;;;5062698;27;89172;-70
2023/12/19 11:13:13;;;;;;;8.33;5.33;;;;;;;;;;5062406;27;88860;-70
2023/12/19 11:15:43;;;;;;;9.47;5.10;;;;;;;;;;5062057;27;87751;-70
2023/12/19 11:18:15;;;;;;;6.03;4.07;;;;;;;;;;5062542;27;92758;-69
2023/12/19 11:20:46;;;;;;;10.33;5.20;;;;;;;;;;5063091;27;88868;-69
2023/12/19 11:23:21;;;;;;;6.97;5.53;;;;;;;;;;5063338;27;89285;-72
2023/12/19 11:25:51;;;;;;;7.37;5.47;;;;;;;;;;5062906;27;87493;-73
2023/12/19 11:28:22;;;;;;;8.50;6.23;;;;;;;;;;5062219;27;88426;-72
2023/12/19 11:30:53;;;;;;;8.20;5.43;;;;;;;;;;5061894;27;88782;-70
2023/12/19 11:33:30;;;;;;;7.33;5.67;;;;;;;;;;5062428;27;89722;-70
2023/12/19 11:36:12;;;;;;;7.70;5.43;;;;;;;;;;5062561;27;87544;-71
2023/12/19 11:38:41;;;;;;;9.07;5.97;;;;;;;;;;5062040;27;89667;-70
2023/12/19 11:41:11;;;;;;;9.63;5.50;;;;;;;;;;5061915;27;89077;-70
2023/12/19 11:43:54;;;;;;;9.53;5.90;;;;;;;;;;5061850;27;88859;-70
2023/12/19 11:46:22;;;;;;;9.73;6.57;;;;;;;;;;5062598;27;87461;-70
2023/12/19 11:48:55;;;;;;;10.27;6.40;;;;;;;;;;5062136;27;89025;-70
2023/12/19 11:51:43;;;;;;;9.93;7.00;;;;;;;;;;5062446;27;89271;-70
2023/12/19 11:54:13;;;;;;;14.33;7.33;;;;;;;;;;5061507;27;88548;-70
2023/12/19 11:56:41;;;;;;;12.17;7.03;;;;;;;;;;5061826;27;87758;-70
2023/12/19 11:59:11;;;;;;;9.03;7.07;;;;;;;;;;5061243;27;89504;-71
2023/12/19 12:01:40;;;;;;;10.90;6.37;;;;;;;;;;5062156;27;89064;-71
2023/12/19 12:04:13;;;;;;;9.50;6.40;;;;;;;;;;5062005;27;88885;-71
2023/12/19 12:06:43;;;;;;;9.53;6.77;;;;;;;;;;5062043;27;87385;-71
2023/12/19 12:09:11;;;;;;;11.13;7.17;;;;;;;;;;5061369;27;90106;-72
2023/12/19 12:11:46;;;;;;;10.70;7.13;;;;;;;;;;5061719;27;89064;-69
2023/12/19 12:14:14;;;;;;;14.40;7.47;;;;;;;;;;5061366;27;88790;-70
2023/12/19 12:16:43;;;;;;;10.90;6.70;;;;;;;;;;5061373;27;87469;-69
2023/12/19 12:19:13;;;;;;;10.50;7.40;;;;;;;;;;5061069;27;89617;-70
2023/12/19 12:21:45;;;;;;;10.83;7.00;;;;;;;;;;5061124;27;89916;-70
2023/12/19 12:24:21;;;;;;;10.67;7.20;;;;;;;;;;5061230;27;89984;-69
2023/12/19 12:27:11;;;;;;;15.00;7.60;;;;;;;;;;5061637;27;87611;-70
2023/12/19 12:29:41;;;;;;;11.43;7.73;;;;;;;;;;5060484;27;89554;-70
2023/12/19 12:32:10;;;;;;;10.77;7.63;;;;;;;;;;5061074;27;88938;-69
2023/12/19 12:34:40;;;;;;;14.13;8.17;;;;;;;;;;5060594;27;88811;-68
2023/12/19 12:37:08;;;;;;;9.97;6.90;;;;;;;;;;5061646;27;87497;-68
2023/12/19 12:39:37;;;;;;;12.70;7.40;;;;;;;;;;5061896;27;89653;-74
2023/12/19 12:42:07;;;;;;;12.07;7.77;;;;;;;;;;5061578;27;89085;-67
2023/12/19 12:44:37;;;;;;;13.17;7.67;;;;;;;;;;5061218;27;88890;-71
2023/12/19 12:47:08;;;;;;;10.10;7.70;;;;;;;;;;5060882;27;88026;-76
2023/12/19 12:49:37;;;;;;;11.67;7.23;;;;;;;;;;5061199;27;89756;-75
2023/12/19 12:52:07;;;;;;;12.30;7.43;;;;;;;;;;5061442;27;89223;-73
2023/12/19 12:54:36;;;;;;;11.00;6.73;;;;;;;;;;5061576;27;89028;-74
2023/12/19 12:57:13;;;;;;;14.17;6.87;;;;;;;;;;5061366;27;87498;-73
2023/12/19 12:59:43;;;;;;;8.40;6.47;;;;;;;;;;5060193;27;89964;-73
2023/12/19 13:02:11;;;;;;;11.90;7.37;;;;;;;;;;5061130;27;89124;-72
2023/12/19 13:04:40;;;;;;;10.37;7.07;;;;;;;;;;5060928;27;87762;-73
2023/12/19 13:07:10;;;;;;;8.87;5.57;;;;;;;;;;5061694;27;87474;-74
2023/12/19 13:09:39;;;;;;;9.00;6.27;;;;;;;;;;5061325;27;89955;-72
2023/12/19 13:12:09;;;;;;;9.90;6.07;;;;;;;;;;5059796;27;88977;-72
2023/12/19 13:14:39;;;;;;;9.37;6.33;;;;;;;;;;5060162;27;89702;-72
2023/12/19 13:17:07;;;;;;;7.13;5.67;;;;;;;;;;5061462;27;87604;-72
2023/12/19 13:19:36;;;;;;;9.70;6.30;;;;;;;;;;5061165;27;88505;-74
2023/12/19 13:22:04;;;;;;;10.67;6.30;;;;;;;;;;5060451;27;89546;-73
2023/12/19 13:24:34;;;;;;;11.87;5.53;;;;;;;;;;5059988;27;88968;-70
2023/12/19 13:27:02;;;;;;;10.17;5.77;;;;;;;;;;5060942;27;87639;-70
2023/12/19 13:29:31;;;;;;;9.27;6.23;;;;;;;;;;5061101;27;89614;-73
2023/12/19 13:32:00;;;;;;;14.07;5.57;;;;;;;;;;5060715;27;88896;-72
2023/12/19 13:34:29;;;;;;;7.70;5.37;;;;;;;;;;5060873;27;88932;-70
2023/12/19 13:36:57;;;;;;;7.50;5.17;;;;;;;;;;5060696;27;87872;-71
2023/12/19 13:39:26;;;;;;;12.03;5.53;;;;;;;;;;5061262;27;90331;-70
2023/12/19 13:42:00;;;;;;;9.67;5.50;;;;;;;;;;5066852;27;89030;-70
2023/12/19 13:44:29;;;;;;;8.93;5.07;;;;;;;;;;5067137;27;88909;-70
2023/12/19 13:46:58;;;;;;;6.50;4.43;;;;;;;;;;5067226;27;87484;-71
2023/12/19 13:49:27;;;;;;;10.90;5.17;;;;;;;;;;5066868;27;89683;-71
2023/12/19 13:51:55;;;;;;;10.10;5.47;;;;;;;;;;5067123;27;89430;-71
2023/12/19 13:54:26;;;;;;;7.33;4.80;;;;;;;;;;5067308;27;88976;-71
2023/12/19 13:56:56;;;;;;;7.90;4.70;;;;;;;;;;5067339;27;88728;-71
2023/12/19 13:59:25;;;;;;;8.23;4.77;;;;;;;;;;5066369;27;89705;-71
2023/12/19 14:01:53;;;;;;;8.97;4.90;;;;;;;;;;5065831;27;90159;-71
2023/12/19 14:04:22;;;;;;;6.83;4.53;;;;;;;;;;5066041;27;89863;-70
2023/12/19 14:06:50;;;;;;;5.60;4.40;;;;;;;;;;5066894;27;87438;-70
2023/12/19 14:09:19;;;;;;;7.33;4.90;;;;;;;;;;5066097;27;89760;-70
2023/12/19 14:11:48;;;;;;;6.70;3.63;;;;;;;;;;5066866;27;89170;-71
2023/12/19 14:14:19;;;;;;;5.37;3.77;;;;;;;;;;5066724;27;88889;-70
2023/12/19 14:16:48;;;;;;;6.47;3.70;;;;;;;;;;5066919;27;87546;-71
2023/12/19 14:19:17;;;;;;;6.03;4.23;;;;;;;;;;5067263;27;89593;-70
2023/12/19 14:21:48;;;;;;;8.87;4.43;;;;;;;;;;5066593;27;89169;-70
2023/12/19 14:24:18;;;;;;;5.80;3.53;;;;;;;;;;5066900;27;88758;-70
2023/12/19 14:26:47;;;;;;;5.40;3.57;;;;;;;;;;5066561;27;87857;-70
2023/12/19 14:29:15;;;;;;;4.43;3.37;;;;;;;;;;5066037;27;89517;-70
2023/12/19 14:31:47;;;;;;;4.87;3.47;;;;;;;;;;5066244;27;89144;-70
2023/12/19 14:34:15;;;;;;;6.47;3.10;;;;;;;;;;5066110;27;88956;-70
2023/12/19 14:36:44;;;;;;;6.93;3.43;;;;;;;;;;5066708;27;87608;-70
2023/12/19 14:39:13;;;;;;;5.13;3.37;;;;;;;;;;5066769;27;89664;-71
2023/12/19 14:41:44;;;;;;;5.30;3.70;;;;;;;;;;5066565;27;89445;-71
2023/12/19 14:44:13;;;;;;;5.43;3.00;;;;;;;;;;5067330;27;88759;-71
2023/12/19 14:46:43;;;;;;;5.93;3.43;;;;;;;;;;5067268;27;87600;-70
2023/12/19 14:49:15;;;;;;;4.17;3.03;;;;;;;;;;5065848;27;88492;-69
2023/12/19 14:51:45;;;;;;;6.00;3.10;;;;;;;;;;5063586;27;90218;-70
2023/12/19 14:54:13;;;;;;;4.77;3.40;;;;;;;;;;5062038;27;89729;-70
2023/12/19 14:56:42;;;;;;;3.23;2.47;;;;;;;;;;5063289;27;87080;-70
2023/12/19 14:59:12;;;;;;;2.73;2.43;;;;;;;;;;5062726;27;89747;-70
2023/12/19 15:01:40;;;;;;;3.13;2.60;;;;;;;;;;5062385;27;89135;-70
2023/12/19 15:04:09;;;;;;;5.53;3.07;;;;;;;;;;5063215;27;90354;-70
2023/12/19 15:06:39;;;;;;;5.63;2.90;;;;;;;;;;5062144;27;87615;-70
2023/12/19 15:09:08;;;;;;;4.13;2.43;;;;;;;;;;5062863;27;89650;-70
2023/12/19 15:11:36;;;;;;;3.07;2.67;;;;;;;;;;5062196;27;89068;-69
2023/12/19 15:14:04;;;;;;;4.20;2.57;;;;;;;;;;5062831;27;89063;-70
2023/12/19 15:16:33;;;;;;;3.40;2.10;;;;;;;;;;5062652;27;87813;-70
2023/12/19 15:19:01;;;;;;;3.53;2.63;;;;;;;;;;5062778;27;89618;-70
2023/12/19 15:21:30;;;;;;;2.63;2.20;;;;;;;;;;5062675;27;89124;-70
2023/12/19 15:23:59;;;;;;;2.70;2.30;;;;;;;;;;5062384;27;88958;-69
2023/12/19 15:26:29;;;;;;;3.03;2.00;;;;;;;;;;5061194;27;87457;-69
2023/12/19 15:28:57;;;;;;;3.70;2.20;;;;;;;;;;5062922;27;88842;-70
2023/12/19 15:31:26;;;;;;;3.93;2.30;;;;;;;;;;5073780;27;88086;-69
2023/12/19 15:33:54;;;;;;;2.93;2.10;;;;;;;;;;5053120;27;87673;-70
2023/12/19 15:36:23;;;;;;;3.43;2.50;;;;;;;;;;5041737;28;87525;-70
2023/12/19 15:38:51;;;;;;;2.63;1.70;;;;;;;;;;5043142;28;89692;-70
2023/12/19 15:41:22;;;;;;;4.03;1.97;;;;;;;;;;5042778;28;90023;-70
2023/12/19 15:43:52;;;;;;;3.27;1.77;;;;;;;;;;5042501;28;89917;-70
2023/12/19 15:46:32;;;;;;;3.03;2.00;;;;;;;;;;5042704;28;87618;-70
2023/12/19 15:49:02;;;;;;;3.23;2.10;;;;;;;;;;5057106;27;89611;-70
2023/12/19 15:51:30;;;;;;;2.87;1.90;;;;;;;;;;5083667;27;87997;-69
2023/12/19 15:54:01;;;;;;;2.57;1.70;;;;;;;;;;5045485;27;87718;-67
2023/12/19 15:56:32;;;;;;;2.37;1.80;;;;;;;;;;5038988;28;88039;-67
2023/12/19 15:59:03;;;;;;;2.80;2.00;;;;;;;;;;5038033;28;89776;-67
2023/12/19 16:01:33;;;;;;;2.57;1.83;;;;;;;;;;5037477;28;91191;-67
2023/12/19 16:04:01;;;;;;;2.03;1.83;;;;;;;;;;5036937;28;89221;-69
2023/12/19 16:06:31;;;;;;;1.70;1.60;;;;;;;;;;5041565;27;88175;-69